createdAt,value
2023-04-22T00:00:05.433Z,0
2023-04-22T00:01:45.192Z,0
2023-04-22T00:03:24.957Z,0
2023-04-22T00:05:04.727Z,0
2023-04-22T00:06:44.476Z,0
2023-04-22T00:08:24.249Z,0
2023-04-22T00:10:04.004Z,0
2023-04-22T00:11:43.765Z,0
2023-04-22T00:13:23.535Z,0
2023-04-22T00:15:03.296Z,0
2023-04-22T00:16:43.056Z,0
2023-04-22T00:18:22.835Z,0
2023-04-22T00:20:02.625Z,0.01
2023-04-22T00:21:42.352Z,0.01
2023-04-22T00:23:22.114Z,0.01
2023-04-22T00:25:01.880Z,0.01
2023-04-22T00:26:41.646Z,0.01
2023-04-22T00:30:01.192Z,0.01
2023-04-22T00:31:40.949Z,0.01
2023-04-22T00:33:20.692Z,0
2023-04-22T00:35:00.465Z,0
2023-04-22T00:36:40.236Z,0
2023-04-22T00:39:59.740Z,0.01
2023-04-22T00:41:39.521Z,0.01
2023-04-22T00:43:19.278Z,0.01
2023-04-22T00:46:38.828Z,0
2023-04-22T00:48:18.565Z,0
2023-04-22T00:49:58.328Z,0
2023-04-22T00:51:38.090Z,0
2023-04-22T00:53:17.869Z,0
2023-04-22T00:54:57.638Z,0
2023-04-22T00:56:37.396Z,0
2023-04-22T00:58:17.146Z,0
2023-04-22T00:59:56.902Z,0
2023-04-22T01:01:36.730Z,0
2023-04-22T01:03:16.446Z,0
2023-04-22T01:06:35.964Z,0.02
2023-04-22T01:08:15.743Z,0
2023-04-22T01:09:55.515Z,0
2023-04-22T01:11:35.288Z,0
2023-04-22T01:13:15.026Z,0
2023-04-22T01:14:54.829Z,0
2023-04-22T01:16:34.559Z,0
2023-04-22T01:18:14.327Z,0.01
2023-04-22T01:19:54.090Z,0.01
2023-04-22T01:21:33.857Z,0.01
2023-04-22T01:23:13.624Z,0.01
2023-04-22T01:24:53.368Z,0.01
2023-04-22T01:26:33.162Z,0.01
2023-04-22T01:28:12.918Z,0.01
2023-04-22T01:29:52.666Z,0.01
2023-04-22T01:31:32.439Z,0.01
2023-04-22T01:33:12.220Z,0.01
2023-04-22T01:34:51.954Z,0.01
2023-04-22T01:36:31.734Z,0.01
2023-04-22T01:38:11.489Z,0.01
2023-04-22T01:39:51.253Z,0.01
2023-04-22T01:41:31.013Z,0.01
2023-04-22T01:43:10.805Z,0.01
2023-04-22T01:44:50.537Z,0.01
2023-04-22T01:46:30.309Z,0.01
2023-04-22T01:49:49.889Z,0.01
2023-04-22T01:51:29.594Z,0.01
2023-04-22T01:53:09.355Z,0.01
2023-04-22T01:54:49.139Z,0.01
2023-04-22T01:56:28.902Z,0.01
2023-04-22T01:58:08.669Z,0.01
2023-04-22T01:59:48.420Z,0.01
2023-04-22T02:01:28.203Z,0.01
2023-04-22T02:03:07.957Z,0.01
2023-04-22T02:06:27.459Z,0.01
2023-04-22T02:09:47.005Z,0.01
2023-04-22T02:11:26.779Z,0.01
2023-04-22T02:13:06.530Z,0.01
2023-04-22T02:14:46.296Z,0.01
2023-04-22T02:16:26.068Z,0.01
2023-04-22T02:18:05.816Z,0.01
2023-04-22T02:19:45.593Z,0.01
2023-04-22T02:21:25.354Z,0.01
2023-04-22T02:23:05.116Z,0.01
2023-04-22T02:26:24.651Z,0.02
2023-04-22T02:28:04.406Z,0.02
2023-04-22T02:29:44.157Z,0.02
2023-04-22T02:31:23.942Z,0.02
2023-04-22T02:33:03.700Z,0.02
2023-04-22T02:34:43.470Z,0.04
2023-04-22T02:36:23.217Z,0.04
2023-04-22T02:38:02.989Z,0.04
2023-04-22T02:41:22.516Z,0.06
2023-04-22T02:43:02.281Z,0.06
2023-04-22T02:46:21.799Z,0.1
2023-04-22T02:48:01.564Z,0.12
2023-04-22T02:49:41.343Z,0.14
2023-04-22T02:51:21.108Z,0.17
2023-04-22T02:53:00.862Z,0.2
2023-04-22T02:54:40.624Z,0.24
2023-04-22T02:56:20.382Z,0.31
2023-04-22T02:58:00.154Z,0.37
2023-04-22T02:59:39.923Z,0.44
2023-04-22T03:01:19.690Z,0.54
2023-04-22T03:02:59.468Z,0.67
2023-04-22T03:04:39.208Z,0.83
2023-04-22T03:06:18.972Z,1.03
2023-04-22T03:07:58.728Z,1.29
2023-04-22T03:09:38.652Z,1.62
2023-04-22T03:11:18.276Z,2.05
2023-04-22T03:12:58.032Z,2.61
2023-04-22T03:16:17.551Z,4.15
2023-04-22T03:19:37.087Z,6.56
2023-04-22T03:21:16.866Z,8.14
2023-04-22T03:22:56.598Z,10.05
2023-04-22T03:26:16.142Z,12.63
2023-04-22T03:31:15.432Z,12.69
2023-04-22T03:32:55.191Z,12.71
2023-04-22T03:34:34.961Z,12.73
2023-04-22T03:36:14.737Z,12.73
2023-04-22T03:37:54.497Z,12.75
2023-04-22T03:39:34.232Z,12.77
2023-04-22T03:41:14.024Z,12.77
2023-04-22T03:42:53.780Z,12.77
2023-04-22T03:46:13.308Z,12.79
2023-04-22T03:49:32.831Z,12.8
2023-04-22T03:51:12.617Z,12.82
2023-04-22T03:52:52.358Z,12.83
2023-04-22T03:56:11.913Z,12.84
2023-04-22T03:59:31.409Z,12.88
2023-04-22T04:01:11.185Z,12.91
2023-04-22T04:06:10.482Z,22.58
2023-04-22T04:07:50.234Z,16.87
2023-04-22T04:09:30.122Z,15.44
2023-04-22T04:11:09.757Z,14.02
2023-04-22T04:12:49.527Z,14.03
2023-04-22T04:14:29.295Z,14.04
2023-04-22T04:16:09.082Z,14.06
2023-04-22T04:19:28.580Z,14.08
2023-04-22T04:21:08.366Z,14.12
2023-04-22T04:22:48.123Z,14.13
2023-04-22T04:26:07.651Z,14.14
2023-04-22T04:29:27.164Z,14.14
2023-04-22T04:31:06.939Z,14.19
2023-04-22T04:32:46.705Z,14.19
2023-04-22T04:34:26.453Z,14.18
2023-04-22T04:36:06.216Z,14.2
2023-04-22T04:37:45.992Z,14.25
2023-04-22T04:39:25.795Z,14.22
2023-04-22T04:41:05.528Z,14.27
2023-04-22T04:42:45.275Z,14.29
2023-04-22T04:44:25.034Z,14.29
2023-04-22T04:46:04.848Z,14.32
2023-04-22T04:47:44.568Z,14.36
2023-04-22T04:49:24.361Z,14.37
2023-04-22T04:51:04.095Z,14.38
2023-04-22T04:52:43.858Z,14.42
2023-04-22T04:54:23.632Z,14.44
2023-04-22T04:56:03.385Z,14.46
2023-04-22T04:57:43.144Z,14.5
2023-04-22T04:59:22.891Z,14.53
2023-04-22T05:01:02.680Z,14.55
2023-04-22T05:02:42.450Z,14.61
2023-04-22T05:04:22.207Z,14.62
2023-04-22T05:06:01.966Z,14.69
2023-04-22T05:07:41.733Z,14.68
2023-04-22T05:09:21.503Z,32.43
2023-04-22T05:11:01.262Z,14.79
2023-04-22T05:12:41.034Z,14.82
2023-04-22T05:14:20.832Z,14.85
2023-04-22T05:16:00.556Z,14.89
2023-04-22T05:17:40.311Z,14.95
2023-04-22T05:19:20.078Z,14.95
2023-04-22T05:20:59.857Z,14.98
2023-04-22T05:22:39.611Z,15.03
2023-04-22T05:24:19.374Z,15.03
2023-04-22T05:25:59.143Z,15.06
2023-04-22T05:27:38.911Z,15.11
2023-04-22T05:29:18.666Z,15.11
2023-04-22T05:30:58.468Z,15.13
2023-04-22T05:32:38.278Z,15.2
2023-04-22T05:34:18.091Z,15.19
2023-04-22T05:35:57.710Z,15.2
2023-04-22T05:37:37.491Z,15.21
2023-04-22T05:39:17.253Z,15.26
2023-04-22T05:40:57.043Z,15.24
2023-04-22T05:42:36.780Z,15.27
2023-04-22T05:44:16.550Z,15.28
2023-04-22T05:45:56.300Z,15.33
2023-04-22T05:47:36.065Z,15.29
2023-04-22T05:49:15.840Z,15.32
2023-04-22T05:50:55.587Z,15.29
2023-04-22T05:52:35.358Z,15.32
2023-04-22T05:54:15.124Z,15.35
2023-04-22T05:55:54.883Z,15.34
2023-04-22T05:57:34.659Z,15.36
2023-04-22T05:59:14.472Z,15.41
2023-04-22T06:00:54.177Z,15.37
2023-04-22T06:02:33.935Z,15.39
2023-04-22T06:04:13.736Z,15.4
2023-04-22T06:05:53.484Z,15.45
2023-04-22T06:09:13.130Z,15.41
2023-04-22T06:10:52.926Z,17.29
2023-04-22T06:12:32.734Z,15.49
2023-04-22T06:14:12.353Z,15.48
2023-04-22T06:15:52.283Z,15.48
2023-04-22T06:17:31.997Z,15.49
2023-04-22T06:19:11.863Z,15.49
2023-04-22T06:20:51.342Z,15.5
2023-04-22T06:22:31.348Z,15.5
2023-04-22T06:24:11.011Z,15.55
2023-04-22T06:25:50.779Z,15.51
2023-04-22T06:27:30.578Z,15.54
2023-04-22T06:29:10.168Z,15.54
2023-04-22T06:30:49.925Z,15.56
2023-04-22T06:32:29.680Z,15.56
2023-04-22T06:34:09.671Z,15.61
2023-04-22T06:35:49.380Z,15.57
2023-04-22T06:37:28.988Z,15.64
2023-04-22T06:39:08.729Z,15.66
2023-04-22T06:40:48.512Z,15.63
2023-04-22T06:42:28.495Z,15.65
2023-04-22T06:45:47.847Z,15.72
2023-04-22T06:47:27.706Z,15.82
2023-04-22T06:49:07.424Z,47.31
2023-04-22T06:50:47.118Z,47.47
2023-04-22T06:52:26.867Z,47.31
2023-04-22T06:54:06.624Z,47.1
2023-04-22T06:55:46.378Z,46.95
2023-04-22T06:57:26.242Z,46.81
2023-04-22T06:59:06.090Z,46.73
2023-04-22T07:00:45.805Z,46.63
2023-04-22T07:02:25.621Z,46.55
2023-04-22T07:04:05.207Z,46.54
2023-04-22T07:05:44.969Z,46.46
2023-04-22T07:07:24.751Z,46.27
2023-04-22T07:09:04.707Z,46.29
2023-04-22T07:10:44.299Z,46.24
2023-04-22T07:12:24.052Z,46.15
2023-04-22T07:14:03.913Z,46.12
2023-04-22T07:15:43.542Z,46.13
2023-04-22T07:19:03.069Z,46.05
2023-04-22T07:20:42.921Z,46.07
2023-04-22T07:22:22.713Z,46.01
2023-04-22T07:24:02.443Z,46.06
2023-04-22T07:25:42.242Z,46
2023-04-22T07:29:01.715Z,45.97
2023-04-22T07:30:41.539Z,45.96
2023-04-22T07:32:21.309Z,45.91
2023-04-22T07:34:01.007Z,45.93
2023-04-22T07:35:40.733Z,45.96
2023-04-22T07:37:20.509Z,45.91
2023-04-22T07:39:00.337Z,46.01
2023-04-22T07:40:40.144Z,45.98
2023-04-22T07:42:19.804Z,46
2023-04-22T07:43:59.561Z,45.91
2023-04-22T07:45:39.354Z,45.83
2023-04-22T07:47:19.214Z,45.58
2023-04-22T07:48:58.912Z,45.65
2023-04-22T07:50:38.610Z,45.76
2023-04-22T07:52:18.486Z,45.74
2023-04-22T07:55:38.124Z,45.71
2023-04-22T07:57:17.698Z,45.72
2023-04-22T07:58:57.497Z,45.63
2023-04-22T08:02:17.003Z,45.7
2023-04-22T08:03:56.780Z,45.76
2023-04-22T08:05:36.487Z,45.92
2023-04-22T08:07:16.274Z,46.06
2023-04-22T08:08:56.191Z,46.23
2023-04-22T08:10:36.015Z,46.39
2023-04-22T08:12:15.531Z,46.49
2023-04-22T08:15:35.118Z,46.62
2023-04-22T08:17:14.942Z,46.67
2023-04-22T08:18:54.656Z,46.65
2023-04-22T08:20:34.462Z,46.53
2023-04-22T08:22:14.118Z,46.6
2023-04-22T08:23:53.882Z,46.66
2023-04-22T08:25:33.780Z,46.58
2023-04-22T08:27:13.394Z,46.5
2023-04-22T08:28:53.168Z,46.47
2023-04-22T08:30:32.950Z,46.52
2023-04-22T08:32:12.696Z,46.56
2023-04-22T08:33:52.502Z,46.67
2023-04-22T08:35:32.295Z,46.69
2023-04-22T08:38:51.769Z,46.68
2023-04-22T08:40:31.516Z,46.67
2023-04-22T08:42:11.271Z,46.77
2023-04-22T08:45:30.812Z,46.57
2023-04-22T08:48:50.357Z,46.65
2023-04-22T08:50:30.117Z,46.7
2023-04-22T08:52:09.866Z,46.61
2023-04-22T08:53:49.658Z,46.6
2023-04-22T08:55:29.406Z,46.67
2023-04-22T08:57:09.182Z,46.59
2023-04-22T08:58:48.947Z,46.43
2023-04-22T09:00:28.683Z,46.4
2023-04-22T09:02:08.461Z,46.46
2023-04-22T09:03:48.222Z,46.51
2023-04-22T09:05:27.993Z,46.48
2023-04-22T09:08:47.509Z,46.37
2023-04-22T09:10:27.295Z,46.41
2023-04-22T09:12:07.062Z,46.33
2023-04-22T09:13:46.796Z,46.25
2023-04-22T09:15:26.563Z,46.27
2023-04-22T09:17:06.313Z,46.38
2023-04-22T09:18:46.266Z,46.14
2023-04-22T09:20:26.050Z,46.13
2023-04-22T09:22:05.709Z,46.25
2023-04-22T09:23:45.535Z,46.23
2023-04-22T09:25:25.259Z,46.32
2023-04-22T09:27:04.913Z,46.45
2023-04-22T09:28:44.769Z,46.61
2023-04-22T09:30:24.557Z,46.46
2023-04-22T09:32:04.200Z,46.2
2023-04-22T09:33:44.123Z,46.18
2023-04-22T09:35:23.888Z,46.39
2023-04-22T09:38:43.294Z,46.03
2023-04-22T09:40:23.151Z,45.99
2023-04-22T09:42:02.977Z,46.08
2023-04-22T09:45:22.311Z,46.23
2023-04-22T09:48:42.006Z,46.01
2023-04-22T09:50:21.627Z,46.18
2023-04-22T09:52:01.374Z,46.21
2023-04-22T09:53:41.243Z,46.22
2023-04-22T09:55:20.901Z,46.25
2023-04-22T09:57:00.689Z,46.42
2023-04-22T09:58:40.479Z,46.22
2023-04-22T10:00:20.172Z,46.28
2023-04-22T10:01:59.983Z,46.27
2023-04-22T10:03:39.796Z,45.92
2023-04-22T10:05:19.488Z,45.79
2023-04-22T10:08:39.078Z,45.83
2023-04-22T10:10:18.784Z,45.88
2023-04-22T10:11:58.544Z,45.66
2023-04-22T10:15:18.116Z,45.47
2023-04-22T10:16:57.825Z,45.42
2023-04-22T10:18:37.608Z,45.34
2023-04-22T10:20:17.370Z,45.63
2023-04-22T10:21:57.175Z,45.9
2023-04-22T10:25:16.660Z,46.17
2023-04-22T10:30:15.966Z,46.29
2023-04-22T10:31:55.721Z,46.13
2023-04-22T10:35:15.252Z,45.94
2023-04-22T10:36:55.112Z,45.85
2023-04-22T10:38:34.771Z,46.03
2023-04-22T10:40:14.526Z,46.25
2023-04-22T10:41:54.386Z,46.11
2023-04-22T10:43:34.058Z,45.91
2023-04-22T10:45:13.811Z,45.8
2023-04-22T10:48:33.409Z,46.17
2023-04-22T10:50:13.111Z,46.3
2023-04-22T10:51:53.010Z,46.62
2023-04-22T10:55:12.474Z,46.67
2023-04-22T10:56:52.166Z,46.57
2023-04-22T10:58:31.967Z,46.45
2023-04-22T11:00:11.713Z,46.37
2023-04-22T11:01:51.451Z,46.32
2023-04-22T11:05:11.066Z,46.3
2023-04-22T11:08:30.593Z,46.29
2023-04-22T11:10:10.292Z,46.15
2023-04-22T11:11:50.178Z,46.12
2023-04-22T11:13:29.889Z,46.26
2023-04-22T11:15:09.571Z,46.38
2023-04-22T11:16:49.427Z,46.35
2023-04-22T11:18:29.099Z,46.44
2023-04-22T11:20:08.871Z,46.48
2023-04-22T11:21:48.625Z,46.33
2023-04-22T11:23:28.489Z,46.37
2023-04-22T11:25:08.219Z,46.37
2023-04-22T11:26:47.915Z,46.41
2023-04-22T11:28:27.755Z,46.35
2023-04-22T11:30:07.436Z,46.42
2023-04-22T11:31:47.277Z,46.46
2023-04-22T11:33:27.037Z,46.19
2023-04-22T11:35:06.764Z,46.33
2023-04-22T11:38:26.279Z,46.49
2023-04-22T11:40:06.024Z,46.55
2023-04-22T11:41:45.882Z,46.58
2023-04-22T11:43:25.549Z,46.31
2023-04-22T11:45:05.467Z,46.27
2023-04-22T11:46:45.367Z,46.24
2023-04-22T11:48:24.924Z,46.48
2023-04-22T11:50:04.677Z,46.44
2023-04-22T11:51:44.472Z,46.47
2023-04-22T11:53:24.132Z,46.52
2023-04-22T11:58:23.470Z,46.54
2023-04-22T12:00:03.267Z,46.39
2023-04-22T12:01:42.965Z,46.34
2023-04-22T12:03:22.914Z,46.31
2023-04-22T12:05:02.533Z,46.3
2023-04-22T12:08:22.169Z,46.45
2023-04-22T12:10:01.849Z,46.39
2023-04-22T12:11:41.748Z,46.37
2023-04-22T12:13:21.342Z,46.46
2023-04-22T12:15:01.076Z,46.3
2023-04-22T12:16:40.953Z,46.22
2023-04-22T12:18:20.596Z,46.29
2023-04-22T12:20:00.381Z,46.28
2023-04-22T12:21:40.232Z,46.31
2023-04-22T12:23:19.879Z,46.23
2023-04-22T12:24:59.663Z,46.45
2023-04-22T12:28:19.257Z,46.25
2023-04-22T12:29:59.005Z,46.4
2023-04-22T12:31:38.798Z,46.23
2023-04-22T12:33:18.503Z,46.4
2023-04-22T12:34:58.268Z,46.35
2023-04-22T12:36:38.176Z,46.24
2023-04-22T12:38:17.777Z,46.16
2023-04-22T12:39:57.676Z,46.28
2023-04-22T12:41:37.384Z,46.23
2023-04-22T12:44:56.829Z,46.3
2023-04-22T12:46:36.617Z,46.45
2023-04-22T12:48:16.368Z,46.57
2023-04-22T12:49:56.135Z,46.47
2023-04-22T12:51:36.041Z,46.42
2023-04-22T12:53:15.660Z,46.27
2023-04-22T12:54:55.441Z,46.3
2023-04-22T12:56:35.274Z,46.19
2023-04-22T12:58:14.937Z,46.09
2023-04-22T12:59:54.846Z,46.21
2023-04-22T13:01:34.483Z,46.31
2023-04-22T13:03:14.262Z,46.44
2023-04-22T13:04:53.999Z,46.36
2023-04-22T13:08:13.534Z,46.26
2023-04-22T13:09:53.285Z,46.24
2023-04-22T13:11:33.058Z,46.12
2023-04-22T13:13:12.835Z,46.06
2023-04-22T13:14:52.577Z,46.09
2023-04-22T13:18:12.227Z,45.93
2023-04-22T13:19:51.870Z,45.74
2023-04-22T13:21:31.674Z,45.85
2023-04-22T13:23:11.501Z,45.98
2023-04-22T13:24:51.187Z,45.87
2023-04-22T13:28:10.734Z,46.01
2023-04-22T13:31:30.250Z,45.94
2023-04-22T13:33:10.008Z,45.97
2023-04-22T13:34:49.781Z,46.1
2023-04-22T13:38:09.290Z,46.09
2023-04-22T13:39:49.132Z,46.14
2023-04-22T13:41:28.796Z,46.06
2023-04-22T13:43:08.577Z,46.18
2023-04-22T13:44:48.336Z,46.23
2023-04-22T13:46:28.200Z,46.13
2023-04-22T13:48:07.937Z,45.99
2023-04-22T13:49:47.643Z,45.78
2023-04-22T13:51:27.491Z,45.77
2023-04-22T13:53:07.154Z,45.86
2023-04-22T13:54:47.007Z,45.97
2023-04-22T13:58:06.496Z,46.07
2023-04-22T13:59:46.239Z,46.07
2023-04-22T14:01:25.993Z,46.05
2023-04-22T14:03:05.768Z,46
2023-04-22T14:04:45.609Z,45.97
2023-04-22T14:06:25.294Z,45.92
2023-04-22T14:08:05.077Z,45.86
2023-04-22T14:09:44.809Z,45.81
2023-04-22T14:11:24.626Z,45.71
2023-04-22T14:13:04.370Z,45.77
2023-04-22T14:14:44.138Z,45.91
2023-04-22T14:16:23.870Z,46.2
2023-04-22T14:19:43.559Z,45.93
2023-04-22T14:21:23.192Z,45.76
2023-04-22T14:23:02.920Z,45.89
2023-04-22T14:24:42.685Z,45.9
2023-04-22T14:28:02.222Z,46.08
2023-04-22T14:29:41.979Z,46.14
2023-04-22T14:31:21.736Z,46.12
2023-04-22T14:33:01.541Z,46.15
2023-04-22T14:34:41.303Z,46.16
2023-04-22T14:38:00.801Z,45.91
2023-04-22T14:39:40.572Z,46.03
2023-04-22T14:41:20.419Z,46.15
2023-04-22T14:43:00.096Z,46.13
2023-04-22T14:44:39.877Z,46.14
2023-04-22T14:46:19.624Z,46.12
2023-04-22T14:47:59.381Z,46.13
2023-04-22T14:49:39.175Z,46.02
2023-04-22T14:51:18.919Z,46
2023-04-22T14:54:38.442Z,45.82
2023-04-22T14:56:18.202Z,45.83
2023-04-22T14:57:57.969Z,45.82
2023-04-22T14:59:37.765Z,45.9
2023-04-22T15:01:17.498Z,45.92
2023-04-22T15:02:57.281Z,45.86
2023-04-22T15:04:37.022Z,45.88
2023-04-22T15:06:16.851Z,45.93
2023-04-22T15:07:56.553Z,45.92
2023-04-22T15:09:36.437Z,45.9
2023-04-22T15:11:16.105Z,45.89
2023-04-22T15:14:35.596Z,45.85
2023-04-22T15:17:55.147Z,45.96
2023-04-22T15:19:35.024Z,45.99
2023-04-22T15:21:14.808Z,45.84
2023-04-22T15:24:34.183Z,45.7
2023-04-22T15:26:13.957Z,45.73
2023-04-22T15:27:53.789Z,45.66
2023-04-22T15:29:33.479Z,45.7
2023-04-22T15:31:13.239Z,45.61
2023-04-22T15:32:53.020Z,45.58
2023-04-22T15:34:32.837Z,45.5
2023-04-22T15:36:12.543Z,45.54
2023-04-22T15:37:52.317Z,45.75
2023-04-22T15:39:32.135Z,45.69
2023-04-22T15:41:11.836Z,45.61
2023-04-22T15:42:51.691Z,45.61
2023-04-22T15:44:31.358Z,45.51
2023-04-22T15:46:11.173Z,45.46
2023-04-22T15:47:50.902Z,45.43
2023-04-22T15:49:30.686Z,45.27
2023-04-22T15:51:10.537Z,45.14
2023-04-22T15:52:50.283Z,44.85
2023-04-22T15:54:29.955Z,44.89
2023-04-22T15:56:09.708Z,44.84
2023-04-22T15:57:49.691Z,45.18
2023-04-22T15:59:29.228Z,44.7
2023-04-22T16:01:09.003Z,44.89
2023-04-22T16:02:48.801Z,44.77
2023-04-22T16:04:28.597Z,44.69
2023-04-22T16:07:48.048Z,44.51
2023-04-22T16:09:28.025Z,44.26
2023-04-22T16:11:07.609Z,44.43
2023-04-22T16:12:47.361Z,44.53
2023-04-22T16:14:27.168Z,44.48
2023-04-22T16:17:46.757Z,44.19
2023-04-22T16:19:26.402Z,44.23
2023-04-22T16:21:06.373Z,43.93
2023-04-22T16:22:45.937Z,44.14
2023-04-22T16:24:25.720Z,44.06
2023-04-22T16:27:45.330Z,43.74
2023-04-22T16:29:25.058Z,43.4
2023-04-22T16:32:44.542Z,43.28
2023-04-22T16:34:24.277Z,43.44
2023-04-22T16:36:04.069Z,43.23
2023-04-22T16:37:43.827Z,43.42
2023-04-22T16:39:23.595Z,43.73
2023-04-22T16:41:03.422Z,43.45
2023-04-22T16:44:22.978Z,43.09
2023-04-22T16:47:42.412Z,43.2
2023-04-22T16:49:22.173Z,42.83
2023-04-22T16:51:01.938Z,43.01
2023-04-22T16:52:41.693Z,42.77
2023-04-22T16:54:21.454Z,42.68
2023-04-22T16:57:41.131Z,42.51
2023-04-22T16:59:20.768Z,42.33
2023-04-22T17:01:00.700Z,42.36
2023-04-22T17:02:40.285Z,42.24
2023-04-22T17:04:20.086Z,42.07
2023-04-22T17:07:39.748Z,41.63
2023-04-22T17:09:19.344Z,41.72
2023-04-22T17:10:59.156Z,41
2023-04-22T17:12:38.991Z,40.14
2023-04-22T17:14:18.630Z,39.5
2023-04-22T17:17:38.169Z,38.79
2023-04-22T17:19:18.008Z,39.14
2023-04-22T17:20:57.709Z,38.49
2023-04-22T17:22:37.440Z,37.75
2023-04-22T17:24:17.208Z,37.09
2023-04-22T17:27:36.763Z,35.62
2023-04-22T17:29:16.509Z,34.91
2023-04-22T17:30:56.475Z,34.16
2023-04-22T17:34:15.995Z,33.61
2023-04-22T17:37:35.374Z,32.66
2023-04-22T17:39:15.182Z,31.68
2023-04-22T17:40:54.850Z,30.71
2023-04-22T17:42:34.629Z,29.77
2023-04-22T17:44:14.383Z,19.61
2023-04-22T17:45:54.239Z,14.58
2023-04-22T17:47:33.935Z,18.58
2023-04-22T17:49:13.797Z,15.54
2023-04-22T17:50:53.482Z,14.44
2023-04-22T17:52:33.297Z,14.43
2023-04-22T17:54:13.145Z,14.39
2023-04-22T17:55:52.752Z,14.36
2023-04-22T17:57:32.580Z,14.34
2023-04-22T17:59:12.259Z,14.27
2023-04-22T18:00:52.027Z,15.77
2023-04-22T18:02:31.777Z,23.7
2023-04-22T18:04:11.624Z,14.75
2023-04-22T18:07:31.161Z,13.23
2023-04-22T18:09:10.921Z,13.2
2023-04-22T18:10:50.664Z,13.18
2023-04-22T18:12:30.478Z,13.16
2023-04-22T18:14:10.157Z,13.13
2023-04-22T18:15:49.903Z,13.11
2023-04-22T18:17:29.744Z,13.11
2023-04-22T18:19:09.569Z,13.1
2023-04-22T18:20:49.244Z,13.07
2023-04-22T18:22:29.099Z,13.07
2023-04-22T18:24:08.820Z,13.05
2023-04-22T18:25:48.474Z,13.06
2023-04-22T18:27:28.247Z,13.03
2023-04-22T18:30:47.776Z,13
2023-04-22T18:32:27.589Z,12.99
2023-04-22T18:34:07.333Z,12.97
2023-04-22T18:37:26.819Z,12.93
2023-04-22T18:39:06.590Z,12.92
2023-04-22T18:40:46.354Z,12.87
2023-04-22T18:44:05.924Z,10.13
2023-04-22T18:47:25.416Z,7.11
2023-04-22T18:49:05.300Z,5.83
2023-04-22T18:50:45.000Z,4.71
2023-04-22T18:52:24.705Z,3.72
2023-04-22T18:54:04.498Z,2.95
2023-04-22T18:57:23.998Z,1.83
2023-04-22T18:59:03.771Z,1.42
2023-04-22T19:00:43.546Z,1.09
2023-04-22T19:02:23.294Z,0.84
2023-04-22T19:04:03.060Z,0.66
2023-04-22T19:05:42.909Z,0.51
2023-04-22T19:07:22.627Z,0.41
2023-04-22T19:09:02.353Z,0.31
2023-04-22T19:10:42.104Z,0.26
2023-04-22T19:12:21.868Z,0.2
2023-04-22T19:14:01.622Z,0.16
2023-04-22T19:15:41.403Z,0.12
2023-04-22T19:17:21.166Z,0.09
2023-04-22T19:19:00.946Z,0.08
2023-04-22T19:20:40.710Z,0.07
2023-04-22T19:22:20.448Z,0.05
2023-04-22T19:24:00.220Z,0.05
2023-04-22T19:25:39.992Z,0.04
2023-04-22T19:27:19.877Z,0.04
2023-04-22T19:28:59.507Z,0.04
2023-04-22T19:30:39.283Z,0.01
2023-04-22T19:32:19.055Z,0.03
2023-04-22T19:33:58.806Z,0.01
2023-04-22T19:35:38.571Z,0.01
2023-04-22T19:37:18.329Z,0.02
2023-04-22T19:38:58.164Z,0.02
2023-04-22T19:40:37.917Z,0.02
2023-04-22T19:42:17.622Z,0.02
2023-04-22T19:43:57.438Z,0.02
2023-04-22T19:45:37.156Z,0
2023-04-22T19:47:16.937Z,0.01
2023-04-22T19:48:56.689Z,0.01
2023-04-22T19:50:36.463Z,0.01
2023-04-22T19:52:16.242Z,0.01
2023-04-22T19:53:55.994Z,0.01
2023-04-22T19:55:35.738Z,0.01
2023-04-22T19:57:15.501Z,0.01
2023-04-22T19:58:55.356Z,0.01
2023-04-22T20:00:35.014Z,0.01
2023-04-22T20:02:14.840Z,0.01
2023-04-22T20:03:54.686Z,0.01
2023-04-22T20:05:34.318Z,0.01
2023-04-22T20:07:14.094Z,0.01
2023-04-22T20:08:53.845Z,0
2023-04-22T20:10:33.719Z,0
2023-04-22T20:12:13.362Z,0
2023-04-22T20:13:53.149Z,0
2023-04-22T20:15:32.917Z,0
2023-04-22T20:17:12.657Z,0
2023-04-22T20:18:52.432Z,0
2023-04-22T20:20:32.296Z,0
2023-04-22T20:22:11.957Z,0
2023-04-22T20:25:31.545Z,0
2023-04-22T20:27:11.242Z,0
2023-04-22T20:28:51.023Z,0
2023-04-22T20:30:30.968Z,0
2023-04-22T20:32:10.565Z,0
2023-04-22T20:33:50.425Z,0
2023-04-22T20:35:30.265Z,0
2023-04-22T20:37:09.896Z,0
2023-04-22T20:38:49.596Z,0
2023-04-22T20:40:29.365Z,0
2023-04-22T20:42:09.119Z,0
2023-04-22T20:43:48.948Z,0
2023-04-22T20:45:28.659Z,0
2023-04-22T20:47:08.437Z,0
2023-04-22T20:48:48.218Z,0
2023-04-22T20:50:27.950Z,0.02
2023-04-22T20:52:07.720Z,0
2023-04-22T20:53:47.528Z,0
2023-04-22T20:55:27.262Z,0.02
2023-04-22T20:57:07.004Z,0.02
2023-04-22T20:58:46.803Z,0.01
2023-04-22T21:00:26.578Z,0.01
2023-04-22T21:02:06.302Z,0.01
2023-04-22T21:03:46.066Z,0.01
2023-04-22T21:07:05.595Z,0.01
2023-04-22T21:08:45.351Z,0.01
2023-04-22T21:10:25.129Z,0.01
2023-04-22T21:12:04.870Z,0.01
2023-04-22T21:13:44.644Z,0.01
2023-04-22T21:15:24.396Z,0.01
2023-04-22T21:17:04.185Z,0.01
2023-04-22T21:18:43.945Z,0
2023-04-22T21:20:23.695Z,0.02
2023-04-22T21:22:03.480Z,0.02
2023-04-22T21:23:43.380Z,0.02
2023-04-22T21:25:23.011Z,0.02
2023-04-22T21:27:02.744Z,0.02
2023-04-22T21:28:42.565Z,0.02
2023-04-22T21:30:22.274Z,0.02
2023-04-22T21:32:02.067Z,0.02
2023-04-22T21:33:41.822Z,0.02
2023-04-22T21:35:21.667Z,0.02
2023-04-22T21:37:01.335Z,0.02
2023-04-22T21:38:41.152Z,0.02
2023-04-22T21:40:20.866Z,0.02
2023-04-22T21:42:00.611Z,0.02
2023-04-22T21:43:40.412Z,0.03
2023-04-22T21:45:20.213Z,0.03
2023-04-22T21:46:59.924Z,0.03
2023-04-22T21:48:39.790Z,0.03
2023-04-22T21:50:19.432Z,0.03
2023-04-22T21:51:59.207Z,0.03
2023-04-22T21:53:39.019Z,0.03
2023-04-22T21:55:18.744Z,0.04
2023-04-22T21:56:58.504Z,0.03
2023-04-22T22:00:18.018Z,0.05
2023-04-22T22:01:57.814Z,0.05
2023-04-22T22:03:37.553Z,0.05
2023-04-22T22:05:17.313Z,0.05
2023-04-22T22:06:57.220Z,0.05
2023-04-22T22:08:36.844Z,0.05
2023-04-22T22:10:16.621Z,0.05
2023-04-22T22:11:56.481Z,0.05
2023-04-22T22:13:36.132Z,0.05
2023-04-22T22:15:16.029Z,0.05
2023-04-22T22:16:55.674Z,0.05
2023-04-22T22:18:35.542Z,0.05
2023-04-22T22:20:15.212Z,0.05
2023-04-22T22:21:54.954Z,0.05
2023-04-22T22:23:34.849Z,0.05
2023-04-22T22:25:14.502Z,0.05
2023-04-22T22:26:54.290Z,0.05
2023-04-22T22:28:34.018Z,0.05
2023-04-22T22:30:13.785Z,0.05
2023-04-22T22:31:53.661Z,0.05
2023-04-22T22:33:33.311Z,0.05
2023-04-22T22:36:52.884Z,0.03
2023-04-22T22:38:32.588Z,0.03
2023-04-22T22:40:12.414Z,0.03
2023-04-22T22:41:52.114Z,0.03
2023-04-22T22:43:31.963Z,0.03
2023-04-22T22:45:11.636Z,0.03
2023-04-22T22:46:51.477Z,0.02
2023-04-22T22:48:31.348Z,0.02
2023-04-22T22:50:10.943Z,0.02
2023-04-22T22:51:50.724Z,0.03
2023-04-22T22:53:30.475Z,0.02
2023-04-22T22:55:10.264Z,0.02
2023-04-22T22:56:50.031Z,0.02
2023-04-22T22:58:29.823Z,0.02
2023-04-22T23:00:09.534Z,0.02
2023-04-22T23:01:49.351Z,0.02
2023-04-22T23:03:29.048Z,0.02
2023-04-22T23:06:48.651Z,0
2023-04-22T23:08:28.487Z,0
2023-04-22T23:10:08.122Z,0
2023-04-22T23:11:47.876Z,0
2023-04-22T23:13:27.653Z,0
2023-04-22T23:15:07.596Z,0
2023-04-22T23:16:47.175Z,0
2023-04-22T23:18:26.937Z,0
2023-04-22T23:20:06.716Z,0
2023-04-22T23:21:46.457Z,0
2023-04-22T23:23:26.232Z,0
2023-04-22T23:25:06.010Z,0
2023-04-22T23:26:45.750Z,0
2023-04-22T23:28:25.514Z,0
2023-04-22T23:30:05.292Z,0
2023-04-22T23:31:45.069Z,0
2023-04-22T23:33:24.809Z,0
2023-04-22T23:36:44.346Z,0
2023-04-22T23:38:24.128Z,0
2023-04-22T23:40:03.860Z,0
2023-04-22T23:41:43.678Z,0
2023-04-22T23:43:23.388Z,0.02
2023-04-22T23:46:42.912Z,0.02
2023-04-22T23:48:22.697Z,0.02
2023-04-22T23:50:02.447Z,0.02
2023-04-22T23:51:42.233Z,0.02
2023-04-22T23:53:22.030Z,0.02
2023-04-22T23:55:01.871Z,0.02
2023-04-22T23:56:41.505Z,0.02
2023-04-22T23:58:21.292Z,0.02
